TAF KGNV
AMD KGNV 090631Z 0907/1006 34006KT 1SM BR OVC002 FM090715 36009KT 5SM BR BKN003 OVC009 FM090800 01003KT P6SM BKN009 OVC012 FM091400 08006KT P6SM BKN015 OVC025 FM091700 07005KT P6SM SCT025 BKN040 BKN200 FM100100 00000KT 3SM BR SCT004 BKN012=
METAR KGNV
WC KGNV
WS KGNV
WV KGNV